General Lucio Blanco International Airport
MMRX : now visible

Airfield :











YOU CAN JOIN US ON...

 
LOGIN :

Register | Disclaimer

   EN    FR    IT 

 









Legend :    VFR   Marginal VFR   IFR   Intensive IFR   Very Intensive IFR
Visi :
Ceiling :
>= 8 km
>= 3000ft
5 to 8 km
1000 to 3000 ft
1500m to 5 km
500 to 1000 ft
800 to 1500m
200 to 500 ft
< 800m
< 200 ft
Symbols :   Thunderstorms  Fog  Heavy snow  Heavy precipitations  Wind > 20 kt







- Airport Elevation : 139 ft
- IATA code : REX


MMRX - General Lucio Blanco International

CURRENT METAR :
  • 211050Z 12003KT 7SM SKC 25/23 A2995 RMK HZY

EXPIRED METARs :
  • 211027Z RTD 00000KT 7SM SCT025 25/23 A2995 RMK 8/500 HZY RTS

TAF TAF MMRX
Valid from the 21 at 06:00 until the 22 at 06:00 UTC


210545Z 2106/2206 12007KT P6SM SCT025
TEMPO 2111/2114 4SM HZ BKN012
FM211400 12007KT 5SM HZ BKN018
PROB40 2114/2118 5SM -RA BKN020CB
FM211800 14018KT P6SM BKN020 BKN250
FM220500 12007KT P6SM SCT020
No reported NOTAMs for that airfield.



MET'MAP, your aeronautical weather chart ! - Copyright ORBIFLY December 2007 - Disclaimer

ORBIFLY MET'MAP TEAM :

Programming & Development : Alexandra Zaïnal
Concept & Development : Baudouin d'Aumeries
Co-Development & Prog : Marc-Olivier Méhu
Technical & hardware support : Manuel Goepfert

Contact : metmap@orbifly.com




SOURCES & CREDITS :

   NOAA       Earth
Advisory